CZFM/ZFM METAR and TAF weather

Enter ICAO airport designator
Station Type Date Time Source
CZFM METAR 2024/02/26 17:00 UTC NOAA

CZFM 261700Z 15005KT 35SM FEW010 M34/M37 A3033 RMK SC1 SC TR SLP278


Station Type Date Time Source
CZFM Decoded METAR 2024/02/26 17:00 UTC NOAA

Fort Mcpherson Airport, Canada (CZFM) 67-24N 134-51W
Feb 26, 2024 - 12:00 PM EST / 2024.02.26 1700 UTC
Wind: from the SSE (150 degrees) at 6 MPH (5 KT):0
Visibility: 35 mile(s):0
Sky conditions: mostly clear
Temperature: -29 F (-34 C)
Windchill: -47 F (-44 C):2
Dew Point: -34 F (-37 C)
Relative Humidity: 74%
Pressure (altimeter): 30.33 in. Hg (1027 hPa)
ob: CZFM 261700Z 15005KT 35SM FEW010 M34/M37 A3033 RMK SC1 SC TR SLP278
cycle: 17

Station Type Date Time Source
CZFM TAF 2024/02/26 16:00 UTC NOAA